createdAt,value
2022-09-05T00:02:34.676Z,22.14
2022-09-05T00:05:10.649Z,22.08
2022-09-05T00:07:58.771Z,22.07
2022-09-05T00:11:16.772Z,22.23
2022-09-05T00:13:44.156Z,22.12
2022-09-05T00:16:41.667Z,22.01
2022-09-05T00:24:22.656Z,22.21
2022-09-05T00:24:29.812Z,21.79
2022-09-05T00:25:49.730Z,21.96
2022-09-05T00:28:37.646Z,22.03
2022-09-05T00:31:55.224Z,21.98
2022-09-05T00:34:24.072Z,22.07
2022-09-05T00:36:55.014Z,21.91
2022-09-05T00:39:32.667Z,22.04
2022-09-05T00:42:11.231Z,22.08
2022-09-05T00:44:55.227Z,22.10
2022-09-05T00:47:48.241Z,22.16
2022-09-05T00:50:29.830Z,22.13
2022-09-05T00:53:25.970Z,22.08
2022-09-05T00:56:24.860Z,21.84
2022-09-05T00:59:25.153Z,21.92
2022-09-05T01:02:07.603Z,21.78
2022-09-05T01:04:55.023Z,22.02
2022-09-05T01:08:06.860Z,22.07
2022-09-05T01:11:05.106Z,21.79
2022-09-05T01:13:45.998Z,21.76
2022-09-05T01:16:27.856Z,21.72
2022-09-05T01:19:58.055Z,21.73
2022-09-05T01:22:53.414Z,21.65
2022-09-05T01:26:05.098Z,21.62
2022-09-05T01:29:18.202Z,21.58
2022-09-05T01:32:08.692Z,21.43
2022-09-05T01:34:59.465Z,21.46
2022-09-05T01:37:44.292Z,21.55
2022-09-05T01:41:21.606Z,21.51
2022-09-05T01:44:22.705Z,21.59
2022-09-05T01:47:29.383Z,21.47
2022-09-05T01:50:21.590Z,21.33
2022-09-05T01:53:06.271Z,21.15
2022-09-05T01:56:29.968Z,21.15
2022-09-05T01:59:48.300Z,21.27
2022-09-05T02:02:36.455Z,21.28
2022-09-05T02:05:48.128Z,21.21
2022-09-05T02:08:38.654Z,21.17
2022-09-05T02:11:11.195Z,21.08
2022-09-05T02:13:38.141Z,21.14
2022-09-05T02:16:28.895Z,21.19
2022-09-05T02:19:13.541Z,21.19
2022-09-05T02:22:10.722Z,21.19
2022-09-05T02:24:48.432Z,21.55
2022-09-05T02:28:05.832Z,21.25
2022-09-05T02:30:37.169Z,21.17
2022-09-05T02:33:32.782Z,21.00
2022-09-05T02:36:29.284Z,20.79
2022-09-05T02:45:02.438Z,20.83
2022-09-05T02:45:08.932Z,21.06
2022-09-05T02:45:27.507Z,20.95
2022-09-05T02:48:43.125Z,20.74
2022-09-05T02:55:31.655Z,20.79
2022-09-05T02:57:35.751Z,20.86
2022-09-05T02:58:04.578Z,20.79
2022-09-05T03:00:20.689Z,20.83
2022-09-05T03:03:15.386Z,20.57
2022-09-05T03:06:34.348Z,20.51
2022-09-05T03:09:29.954Z,20.40
2022-09-05T03:12:40.460Z,20.48
2022-09-05T03:15:38.951Z,20.48
2022-09-05T03:18:42.556Z,20.56
2022-09-05T03:21:37.213Z,20.45
2022-09-05T03:24:56.688Z,20.73
2022-09-05T03:27:53.639Z,20.42
2022-09-05T03:30:28.760Z,20.44
2022-09-05T03:33:38.835Z,20.05
2022-09-05T03:36:11.923Z,20.15
2022-09-05T03:39:19.540Z,20.32
2022-09-05T03:42:26.840Z,20.02
2022-09-05T03:45:37.767Z,20.18
2022-09-05T03:48:29.556Z,20.27
2022-09-05T03:57:04.924Z,20.13
2022-09-05T03:57:22.794Z,19.90
2022-09-05T03:58:16.845Z,20.11
2022-09-05T04:02:37.359Z,20.09
2022-09-05T04:08:09.866Z,19.71
2022-09-05T04:08:23.832Z,19.57
2022-09-05T04:10:57.613Z,19.64
2022-09-05T04:13:38.767Z,19.49
2022-09-05T04:16:15.847Z,19.50
2022-09-05T04:19:22.795Z,19.34
2022-09-05T04:22:33.336Z,19.32
2022-09-05T04:25:44.754Z,19.51
2022-09-05T04:28:29.468Z,19.21
2022-09-05T04:31:19.824Z,19.33
2022-09-05T04:34:21.103Z,19.53
2022-09-05T04:37:09.868Z,19.74
2022-09-05T04:39:39.584Z,19.63
2022-09-05T04:42:06.726Z,19.60
2022-09-05T04:45:03.688Z,19.68
2022-09-05T04:47:31.020Z,19.61
2022-09-05T04:50:22.714Z,19.60
2022-09-05T04:53:08.545Z,19.46
2022-09-05T04:55:50.771Z,19.53
2022-09-05T04:58:50.742Z,19.55
2022-09-05T05:06:05.029Z,19.35
2022-09-05T05:06:08.226Z,19.45
2022-09-05T05:07:27.272Z,19.49
2022-09-05T05:10:06.475Z,19.40
2022-09-05T05:18:00.363Z,19.62
2022-09-05T05:18:12.191Z,19.76
2022-09-05T05:19:18.689Z,19.76
2022-09-05T05:22:01.064Z,19.52
2022-09-05T05:24:43.777Z,19.76
2022-09-05T05:27:25.181Z,19.72
2022-09-05T05:30:07.522Z,19.73
2022-09-05T05:32:51.721Z,19.60
2022-09-05T05:35:29.616Z,19.83
2022-09-05T05:38:36.669Z,20.13
2022-09-05T05:41:24.678Z,20.00
2022-09-05T05:43:52.021Z,20.11
2022-09-05T05:46:35.398Z,20.32
2022-09-05T05:49:46.189Z,20.39
2022-09-05T05:52:47.006Z,20.38
2022-09-05T05:55:53.568Z,20.38
2022-09-05T05:58:38.885Z,20.66
2022-09-05T06:01:39.542Z,20.23
2022-09-05T06:04:53.762Z,20.46
2022-09-05T06:09:33.777Z,20.71
2022-09-05T06:15:01.922Z,20.48
2022-09-05T06:15:08.799Z,20.68
2022-09-05T06:18:15.969Z,20.76
2022-09-05T06:22:09.315Z,20.88
2022-09-05T06:24:35.228Z,20.57
2022-09-05T06:27:32.508Z,20.33
2022-09-05T06:30:09.995Z,20.38
2022-09-05T06:33:21.833Z,20.68
2022-09-05T06:36:52.147Z,21.00
2022-09-05T06:39:58.591Z,21.13
2022-09-05T06:43:12.232Z,21.40
2022-09-05T06:46:55.014Z,21.85
2022-09-05T06:49:47.933Z,21.91
2022-09-05T06:52:48.160Z,21.53
2022-09-05T06:55:43.629Z,21.48
2022-09-05T06:58:10.562Z,21.22
2022-09-05T07:00:48.636Z,21.30
2022-09-05T07:03:59.874Z,21.14
2022-09-05T07:07:17.997Z,21.33
2022-09-05T07:10:00.437Z,21.09
2022-09-05T07:12:49.546Z,21.10
2022-09-05T07:15:53.440Z,21.79
2022-09-05T07:18:26.154Z,22.10
2022-09-05T07:21:17.411Z,21.91
2022-09-05T07:24:06.471Z,22.16
2022-09-05T07:26:53.790Z,22.47
2022-09-05T07:29:36.742Z,22.41
2022-09-05T07:32:09.801Z,22.54
2022-09-05T07:34:38.438Z,22.83
2022-09-05T07:37:15.162Z,23.05
2022-09-05T07:40:03.942Z,24.30
2022-09-05T07:43:09.413Z,24.50
2022-09-05T07:45:55.994Z,24.64
2022-09-05T07:48:35.053Z,24.42
2022-09-05T07:56:56.677Z,24.28
2022-09-05T07:57:17.502Z,24.80
2022-09-05T08:00:00.644Z,25.58
2022-09-05T08:02:27.541Z,26.36
2022-09-05T08:05:04.554Z,26.49
2022-09-05T08:07:47.022Z,26.38
2022-09-05T08:11:23.527Z,26.19
2022-09-05T08:13:46.231Z,26.04
2022-09-05T08:16:22.761Z,26.09
2022-09-05T08:19:21.100Z,26.98
2022-09-05T08:21:51.872Z,28.33
2022-09-05T08:24:43.784Z,28.29
2022-09-05T08:27:44.511Z,28.19
2022-09-05T08:30:25.239Z,29.45
2022-09-05T08:33:22.852Z,30.68
2022-09-05T08:36:05.048Z,29.77
2022-09-05T08:38:40.934Z,28.33
2022-09-05T08:41:58.813Z,26.31
2022-09-05T08:46:43.269Z,26.35
2022-09-05T08:48:04.548Z,27.64
2022-09-05T08:50:58.091Z,28.43
2022-09-05T08:54:12.217Z,28.72
2022-09-05T08:57:43.129Z,29.93
2022-09-05T09:00:20.481Z,30.27
2022-09-05T09:03:26.004Z,31.06
2022-09-05T09:06:13.501Z,31.56
2022-09-05T09:09:12.556Z,32.07
2022-09-05T09:11:54.716Z,30.89
2022-09-05T09:14:39.476Z,30.13
2022-09-05T09:17:39.750Z,29.79
2022-09-05T09:20:45.167Z,29.44
2022-09-05T09:23:41.959Z,29.27
2022-09-05T09:26:24.600Z,31.64
2022-09-05T09:29:10.818Z,32.74
2022-09-05T09:32:13.374Z,32.50
2022-09-05T09:35:08.140Z,31.59
2022-09-05T09:38:08.755Z,30.75
2022-09-05T09:41:03.702Z,30.15
2022-09-05T09:43:58.316Z,29.61
2022-09-05T09:46:44.599Z,29.75
2022-09-05T09:49:39.299Z,30.38
2022-09-05T09:52:24.613Z,30.65
2022-09-05T09:55:41.025Z,30.39
2022-09-05T09:58:49.248Z,32.59
2022-09-05T10:01:42.356Z,35.06
2022-09-05T10:10:35.766Z,34.17
2022-09-05T10:10:54.452Z,34.89
2022-09-05T10:14:50.817Z,32.26
2022-09-05T10:17:33.009Z,31.16
2022-09-05T10:20:43.758Z,30.28
2022-09-05T10:23:59.613Z,29.10
2022-09-05T10:27:10.037Z,29.24
2022-09-05T10:29:39.664Z,29.47
2022-09-05T10:35:10.208Z,28.94
2022-09-05T10:35:22.511Z,29.01
2022-09-05T10:38:10.463Z,29.06
2022-09-05T10:41:19.748Z,29.40
2022-09-05T10:44:04.511Z,29.41
2022-09-05T10:47:00.060Z,31.23
2022-09-05T10:49:36.577Z,32.47
2022-09-05T10:52:29.433Z,34.36
2022-09-05T10:55:14.022Z,36.49
2022-09-05T10:58:04.276Z,34.51
2022-09-05T11:02:28.569Z,33.05
2022-09-05T11:03:52.873Z,32.51
2022-09-05T11:06:36.168Z,32.30
2022-09-05T11:09:22.018Z,31.89
2022-09-05T11:12:35.408Z,31.26
2022-09-05T11:15:28.458Z,31.27
2022-09-05T11:18:15.464Z,30.08
2022-09-05T11:21:18.986Z,30.42
2022-09-05T11:24:10.953Z,30.76
2022-09-05T11:26:52.915Z,31.02
2022-09-05T11:29:51.237Z,31.65
2022-09-05T11:39:46.455Z,32.64
2022-09-05T11:39:56.167Z,32.25
2022-09-05T11:39:59.041Z,32.44
2022-09-05T11:42:22.718Z,31.40
2022-09-05T11:45:17.678Z,30.78
2022-09-05T11:48:22.241Z,31.45
2022-09-05T11:51:13.258Z,30.71
2022-09-05T11:53:58.040Z,30.53
2022-09-05T11:56:46.188Z,30.24
2022-09-05T11:59:51.285Z,30.09
2022-09-05T12:03:06.749Z,30.82
2022-09-05T12:05:59.258Z,30.97
2022-09-05T12:08:54.935Z,30.45
2022-09-05T12:12:03.892Z,31.04
2022-09-05T12:14:58.289Z,30.29
2022-09-05T12:17:50.190Z,29.98
2022-09-05T12:20:43.192Z,29.75
2022-09-05T12:24:08.286Z,29.67
2022-09-05T12:27:36.412Z,29.70
2022-09-05T12:29:48.650Z,29.25
2022-09-05T12:33:32.715Z,29.25
2022-09-05T12:36:09.769Z,29.18
2022-09-05T12:40:59.430Z,31.29
2022-09-05T12:42:11.441Z,32.52
2022-09-05T12:45:09.813Z,31.62
2022-09-05T12:48:16.425Z,32.11
2022-09-05T12:51:10.214Z,33.45
2022-09-05T12:53:42.038Z,34.79
2022-09-05T12:58:50.888Z,33.49
2022-09-05T13:03:01.344Z,34.20
2022-09-05T13:03:02.984Z,34.49
2022-09-05T13:05:19.546Z,33.37
2022-09-05T13:07:56.361Z,32.13
2022-09-05T13:14:49.487Z,32.20
2022-09-05T13:15:02.617Z,33.31
2022-09-05T13:16:42.704Z,34.37
2022-09-05T13:19:51.205Z,35.33
2022-09-05T13:22:24.455Z,34.55
2022-09-05T13:25:07.341Z,33.00
2022-09-05T13:27:47.106Z,32.44
2022-09-05T13:34:28.053Z,33.66
2022-09-05T13:38:10.167Z,33.21
2022-09-05T13:38:11.402Z,34.11
2022-09-05T13:39:15.617Z,32.05
2022-09-05T13:41:52.798Z,32.19
2022-09-05T13:44:25.472Z,32.87
2022-09-05T13:47:29.144Z,33.18
2022-09-05T13:50:33.247Z,33.70
2022-09-05T13:53:26.227Z,33.63
2022-09-05T13:56:03.528Z,33.57
2022-09-05T13:58:39.935Z,32.84
2022-09-05T14:02:25.833Z,32.00
2022-09-05T14:05:20.966Z,30.93
2022-09-05T14:08:25.891Z,30.94
2022-09-05T14:11:27.940Z,31.17
2022-09-05T14:14:04.822Z,31.41
2022-09-05T14:16:54.028Z,31.11
2022-09-05T14:19:43.644Z,30.56
2022-09-05T14:22:44.261Z,31.07
2022-09-05T14:25:25.999Z,30.95
2022-09-05T14:27:55.077Z,30.90
2022-09-05T14:35:33.289Z,31.40
2022-09-05T14:37:41.622Z,29.36
2022-09-05T14:37:55.238Z,31.29
2022-09-05T14:41:12.631Z,29.18
2022-09-05T14:44:46.040Z,29.68
2022-09-05T14:47:35.030Z,29.40
2022-09-05T14:50:14.941Z,30.00
2022-09-05T14:59:35.383Z,29.32
2022-09-05T15:02:40.791Z,29.06
2022-09-05T15:02:54.499Z,29.40
2022-09-05T15:05:29.186Z,28.66
2022-09-05T15:08:18.260Z,28.80
2022-09-05T15:12:20.729Z,28.98
2022-09-05T15:14:03.451Z,28.81
2022-09-05T15:16:38.564Z,28.68
2022-09-05T15:19:09.675Z,28.67
2022-09-05T15:21:41.731Z,28.51
2022-09-05T15:24:24.309Z,28.27
2022-09-05T15:27:01.169Z,28.30
2022-09-05T15:29:35.667Z,28.54
2022-09-05T15:32:38.888Z,28.56
2022-09-05T15:35:06.729Z,28.18
2022-09-05T15:37:40.741Z,27.92
2022-09-05T15:40:22.558Z,27.87
2022-09-05T15:42:56.592Z,27.91
2022-09-05T15:45:37.373Z,28.12
2022-09-05T15:48:18.542Z,28.10
2022-09-05T15:50:58.384Z,27.79
2022-09-05T15:53:36.926Z,27.57
2022-09-05T15:56:09.811Z,27.76
2022-09-05T15:58:54.178Z,27.42
2022-09-05T16:01:59.823Z,27.53
2022-09-05T16:10:27.268Z,27.79
2022-09-05T16:10:42.034Z,27.23
2022-09-05T16:10:59.282Z,27.29
2022-09-05T16:13:18.528Z,27.37
2022-09-05T16:20:33.254Z,27.27
2022-09-05T16:23:16.806Z,27.05
2022-09-05T16:23:29.698Z,27.34
2022-09-05T16:24:57.977Z,26.83
2022-09-05T16:27:46.683Z,26.77
2022-09-05T16:30:22.048Z,26.87
2022-09-05T16:32:52.513Z,27.06
2022-09-05T16:35:24.941Z,27.11
2022-09-05T16:38:12.750Z,27.01
2022-09-05T16:40:47.572Z,26.99
2022-09-05T16:43:46.746Z,27.46
2022-09-05T16:46:38.471Z,27.43
2022-09-05T16:49:19.721Z,27.32
2022-09-05T16:52:17.350Z,27.08
2022-09-05T16:55:06.701Z,26.88
2022-09-05T16:57:36.326Z,27.02
2022-09-05T17:00:08.544Z,26.94
2022-09-05T17:03:20.082Z,27.09
2022-09-05T17:06:14.847Z,26.85
2022-09-05T17:09:12.211Z,26.76
2022-09-05T17:12:00.063Z,26.48
2022-09-05T17:14:36.004Z,26.51
2022-09-05T17:17:36.018Z,26.47
2022-09-05T17:20:14.814Z,26.52
2022-09-05T17:25:28.234Z,26.42
2022-09-05T17:29:42.137Z,26.31
2022-09-05T17:30:21.926Z,26.07
2022-09-05T17:31:55.262Z,26.25
2022-09-05T17:34:53.686Z,26.00
2022-09-05T17:38:00.805Z,25.94
2022-09-05T17:41:09.043Z,25.69
2022-09-05T17:43:39.635Z,25.70
2022-09-05T17:46:31.582Z,25.70
2022-09-05T17:49:19.702Z,25.64
2022-09-05T17:51:53.924Z,25.50
2022-09-05T17:54:33.794Z,25.53
2022-09-05T17:57:29.497Z,25.54
2022-09-05T18:00:11.185Z,25.67
2022-09-05T18:02:56.460Z,25.47
2022-09-05T18:06:03.649Z,25.67
2022-09-05T18:09:08.784Z,25.43
2022-09-05T18:11:44.772Z,25.63
2022-09-05T18:14:24.513Z,25.46
2022-09-05T18:17:36.752Z,25.32
2022-09-05T18:19:57.929Z,25.15
2022-09-05T18:22:32.343Z,25.09
2022-09-05T18:25:28.399Z,25.02
2022-09-05T18:28:14.561Z,24.89
2022-09-05T18:30:45.149Z,24.79
2022-09-05T18:34:03.739Z,24.73
2022-09-05T18:36:25.703Z,24.68
2022-09-05T18:39:37.255Z,24.83
2022-09-05T18:42:26.631Z,24.68
2022-09-05T18:45:02.354Z,24.75
2022-09-05T18:47:52.719Z,24.70
2022-09-05T18:50:39.253Z,24.68
2022-09-05T18:53:12.798Z,24.63
2022-09-05T18:56:19.858Z,24.74
2022-09-05T18:59:10.969Z,24.72
2022-09-05T19:01:53.902Z,24.87
2022-09-05T19:04:54.145Z,24.63
2022-09-05T19:07:31.640Z,24.62
2022-09-05T19:10:35.684Z,24.57
2022-09-05T19:13:22.455Z,24.71
2022-09-05T19:16:18.199Z,24.47
2022-09-05T19:19:10.922Z,24.48
2022-09-05T19:23:01.034Z,24.29
2022-09-05T19:24:49.148Z,24.14
2022-09-05T19:29:45.836Z,24.13
2022-09-05T19:36:58.067Z,24.08
2022-09-05T19:37:03.965Z,24.08
2022-09-05T19:37:06.617Z,23.98
2022-09-05T19:40:32.117Z,23.92
2022-09-05T19:47:31.625Z,23.71
2022-09-05T19:47:57.485Z,23.59
2022-09-05T19:50:28.604Z,23.50
2022-09-05T19:53:07.479Z,23.52
2022-09-05T19:55:43.918Z,23.38
2022-09-05T19:58:22.336Z,23.33
2022-09-05T20:01:07.886Z,23.29
2022-09-05T20:03:43.032Z,23.43
2022-09-05T20:06:31.006Z,23.27
2022-09-05T20:09:23.536Z,23.11
2022-09-05T20:11:58.872Z,23.06
2022-09-05T20:14:30.031Z,22.99
2022-09-05T20:17:19.081Z,22.94
2022-09-05T20:19:46.302Z,23.07
2022-09-05T20:22:47.577Z,22.91
2022-09-05T20:25:36.704Z,22.81
2022-09-05T20:28:10.695Z,22.64
2022-09-05T20:30:45.109Z,22.97
2022-09-05T20:33:24.779Z,22.51
2022-09-05T20:43:11.457Z,22.74
2022-09-05T20:43:16.876Z,22.80
2022-09-05T20:43:24.417Z,22.70
2022-09-05T20:44:51.243Z,22.81
2022-09-05T20:52:23.093Z,22.83
2022-09-05T20:54:21.143Z,22.96
2022-09-05T20:54:21.741Z,22.79
2022-09-05T20:56:32.499Z,22.62
2022-09-05T20:59:00.993Z,22.78
2022-09-05T21:01:32.386Z,22.65
2022-09-05T21:04:03.509Z,22.79
2022-09-05T21:06:41.483Z,22.27
2022-09-05T21:09:29.280Z,22.34
2022-09-05T21:11:58.829Z,22.25
2022-09-05T21:14:31.554Z,22.28
2022-09-05T21:17:15.394Z,22.11
2022-09-05T21:19:53.479Z,22.03
2022-09-05T21:22:21.146Z,21.93
2022-09-05T21:25:07.263Z,22.16
2022-09-05T21:27:37.125Z,22.24
2022-09-05T21:30:30.655Z,22.30
2022-09-05T21:33:10.708Z,22.32
2022-09-05T21:36:01.386Z,22.36
2022-09-05T21:38:34.625Z,22.57
2022-09-05T21:41:05.194Z,22.43
2022-09-05T21:47:47.015Z,22.08
2022-09-05T21:47:49.807Z,22.09
2022-09-05T21:49:09.026Z,22.25
2022-09-05T21:51:40.551Z,22.07
2022-09-05T21:59:15.143Z,22.01
2022-09-05T21:59:19.091Z,22.17
2022-09-05T21:59:59.548Z,22.08
2022-09-05T22:02:38.113Z,21.93
2022-09-05T22:05:05.434Z,21.82
2022-09-05T22:07:35.870Z,21.91
2022-09-05T22:10:05.996Z,21.66
2022-09-05T22:12:38.584Z,21.66
2022-09-05T22:15:27.168Z,21.68
2022-09-05T22:17:59.665Z,21.57
2022-09-05T22:21:32.641Z,21.58
2022-09-05T22:23:47.140Z,21.82
2022-09-05T22:26:18.023Z,21.68
2022-09-05T22:28:51.403Z,21.58
2022-09-05T22:31:19.931Z,21.44
2022-09-05T22:33:51.260Z,21.32
2022-09-05T22:36:23.634Z,21.20
2022-09-05T22:38:50.556Z,20.93
2022-09-05T22:41:29.964Z,21.14
2022-09-05T22:43:58.040Z,21.16
2022-09-05T22:46:30.390Z,21.23
2022-09-05T22:48:59.451Z,21.23
2022-09-05T22:51:26.322Z,20.95
2022-09-05T22:53:57.806Z,21.22
2022-09-05T22:56:37.143Z,21.06
2022-09-05T22:59:05.842Z,21.11
2022-09-05T23:01:33.297Z,21.08
2022-09-05T23:04:03.006Z,20.84
2022-09-05T23:06:34.492Z,20.81
2022-09-05T23:09:05.947Z,20.88
2022-09-05T23:11:32.885Z,20.79
2022-09-05T23:13:59.876Z,20.73
2022-09-05T23:16:29.163Z,20.74
2022-09-05T23:18:56.061Z,20.74
2022-09-05T23:21:25.397Z,20.69
2022-09-05T23:23:52.255Z,20.82
2022-09-05T23:26:19.092Z,20.96
2022-09-05T23:28:48.278Z,20.78
2022-09-05T23:31:15.267Z,20.79
2022-09-05T23:33:42.695Z,20.68
2022-09-05T23:36:13.908Z,20.55
2022-09-05T23:38:42.788Z,20.71
2022-09-05T23:41:12.902Z,20.82
2022-09-05T23:43:42.738Z,20.86
2022-09-05T23:46:10.342Z,20.88
2022-09-05T23:48:42.055Z,20.90
2022-09-05T23:51:12.543Z,20.62
2022-09-05T23:53:39.951Z,20.63
2022-09-05T23:56:12.220Z,20.55
2022-09-05T23:58:39.739Z,20.40
